Time;durP1;ratioP1;P1;durP2;ratioP2;P2;SDS_P1;SDS_P2;PMS_P1;PMS_P2;Temp;Humidity;BMP_temperature;BMP_pressure;BME280_temperature;BME280_humidity;BME280_pressure;Samples;Min_cycle;Max_cycle;Signal;HPM_P1;HPM_P2
2024/01/31 00:00:48;;;;;;;36.10;21.80;;;;;;;-0.48;68.43;101992.70;106171;1256;59538;-71
2024/01/31 00:03:16;;;;;;;37.90;23.20;;;;;;;-0.51;68.49;101988.58;106093;1256;59557;-71
2024/01/31 00:05:43;;;;;;;38.70;23.50;;;;;;;-0.52;68.50;101983.92;106038;1251;65540;-71
2024/01/31 00:08:11;;;;;;;39.30;24.60;;;;;;;-0.53;68.53;101980.64;106148;1255;59634;-71
2024/01/31 00:10:38;;;;;;;41.50;24.40;;;;;;;-0.55;68.59;101980.49;105912;1255;63850;-71
2024/01/31 00:13:06;;;;;;;38.40;24.20;;;;;;;-0.56;68.59;101979.64;106252;1252;59589;-71
2024/01/31 00:15:34;;;;;;;44.80;25.50;;;;;;;-0.56;68.67;101977.56;105980;1251;59548;-71
2024/01/31 00:18:02;;;;;;;42.00;25.00;;;;;;;-0.57;68.78;101972.89;105913;1254;66583;-72
2024/01/31 00:20:30;;;;;;;42.90;25.40;;;;;;;-0.59;68.72;101970.80;106007;1251;60634;-71
2024/01/31 00:22:57;;;;;;;43.50;25.70;;;;;;;-0.59;68.63;101966.30;105958;1251;66260;-72
2024/01/31 00:25:25;;;;;;;43.00;25.90;;;;;;;-0.60;68.59;101963.72;106022;1253;60171;-71
2024/01/31 00:27:53;;;;;;;42.80;24.80;;;;;;;-0.63;68.71;101966.17;106876;1251;59583;-72
2024/01/31 00:30:20;;;;;;;41.00;24.40;;;;;;;-0.67;68.76;101964.48;106370;1257;64117;-72
2024/01/31 00:32:48;;;;;;;39.20;23.90;;;;;;;-0.68;68.83;101958.26;106123;1251;59743;-71
2024/01/31 00:35:16;;;;;;;41.80;24.40;;;;;;;-0.67;68.74;101956.70;106112;1254;64262;-72
2024/01/31 00:37:43;;;;;;;39.70;24.20;;;;;;;-0.69;68.79;101961.02;106283;1256;59574;-71
2024/01/31 00:40:11;;;;;;;41.40;25.20;;;;;;;-0.70;68.82;101963.29;105906;1253;59700;-72
2024/01/31 00:42:39;;;;;;;36.90;22.10;;;;;;;-0.72;68.80;101961.76;106045;1251;64110;-71
2024/01/31 00:45:07;;;;;;;30.90;18.80;;;;;;;-0.72;68.87;101962.27;106210;1254;59608;-70
2024/01/31 00:47:35;;;;;;;27.10;18.60;;;;;;;-0.71;68.85;101965.89;106200;1251;65520;-71
2024/01/31 00:50:03;;;;;;;27.20;17.90;;;;;;;-0.69;68.96;101966.40;106078;1259;59397;-71
2024/01/31 00:52:31;;;;;;;29.90;18.90;;;;;;;-0.67;68.99;101964.31;105992;1256;59708;-71
2024/01/31 00:54:58;;;;;;;25.80;17.10;;;;;;;-0.66;68.96;101966.39;106055;1257;64074;-72
2024/01/31 00:57:26;;;;;;;26.60;18.20;;;;;;;-0.66;69.04;101966.39;106061;1256;59529;-72
2024/01/31 00:59:54;;;;;;;24.70;17.10;;;;;;;-0.66;69.07;101968.63;106104;1251;63656;-70
2024/01/31 01:02:22;;;;;;;25.40;16.10;;;;;;;-0.65;69.10;101966.02;106167;1254;59767;-72
2024/01/31 01:04:52;;;;;;;23.90;16.50;;;;;;;-0.65;69.08;101962.23;106312;1251;59616;-72
2024/01/31 01:07:20;;;;;;;24.30;15.60;;;;;;;-0.67;69.11;101963.79;106096;1251;63278;-72
2024/01/31 01:09:48;;;;;;;21.50;14.30;;;;;;;-0.67;69.18;101964.14;106036;1254;59681;-72
2024/01/31 01:19:42;;;;;;;22.30;15.40;;;;;;;-0.63;69.41;101953.73;102875;1293;600565;-71
2024/01/31 01:22:10;;;;;;;22.90;14.90;;;;;;;-0.64;69.37;101950.96;105295;1269;59295;-72
2024/01/31 01:24:37;;;;;;;21.80;15.00;;;;;;;-0.62;69.44;101950.25;105048;1267;60928;-72
2024/01/31 01:27:05;;;;;;;20.70;14.40;;;;;;;-0.60;69.53;101948.33;105786;1269;63781;-72
2024/01/31 01:29:32;;;;;;;24.50;15.60;;;;;;;-0.59;69.53;101946.94;105372;1272;59216;-72
2024/01/31 01:39:45;;;;;;;22.10;15.90;;;;;;;-0.54;69.56;101937.21;102739;1291;605553;-71
2024/01/31 01:42:12;;;;;;;21.40;15.60;;;;;;;-0.57;69.50;101931.36;105335;1266;59372;-71
2024/01/31 01:44:47;;;;;;;21.80;15.40;;;;;;;-0.59;69.38;101928.77;105444;1262;59340;-72
2024/01/31 01:47:13;;;;;;;22.10;14.30;;;;;;;-0.62;69.40;101925.86;105397;1264;62244;-72
2024/01/31 01:49:40;;;;;;;24.40;15.50;;;;;;;-0.64;69.45;101921.39;105294;1268;67532;-71
2024/01/31 01:52:08;;;;;;;20.50;14.00;;;;;;;-0.65;69.43;101922.09;105351;1266;203604;-70
2024/01/31 01:54:35;;;;;;;20.60;14.10;;;;;;;-0.66;69.38;101921.41;105693;1263;59330;-70
2024/01/31 01:57:02;;;;;;;21.50;13.00;;;;;;;-0.67;69.43;101917.09;105435;1267;59219;-70
2024/01/31 01:59:29;;;;;;;19.40;12.80;;;;;;;-0.68;69.43;101915.88;105568;1260;63596;-71
2024/01/31 02:01:56;;;;;;;22.90;14.40;;;;;;;-0.70;69.60;101916.23;105505;1265;59209;-70
2024/01/31 02:04:23;;;;;;;23.00;14.70;;;;;;;-0.70;69.64;101919.52;105246;1263;63808;-70
2024/01/31 02:06:51;;;;;;;19.10;13.70;;;;;;;-0.68;69.74;101916.57;105454;1261;59665;-70
2024/01/31 02:09:17;;;;;;;20.20;13.90;;;;;;;-0.67;69.66;101915.70;105442;1266;59678;-70
2024/01/31 02:11:44;;;;;;;18.70;13.40;;;;;;;-0.67;69.84;101912.59;105564;1266;64182;-70
2024/01/31 02:14:11;;;;;;;17.90;13.20;;;;;;;-0.67;69.95;101914.33;105500;1266;59496;-70
2024/01/31 02:16:38;;;;;;;17.50;12.90;;;;;;;-0.66;70.03;101920.89;105599;1276;64027;-69
2024/01/31 02:19:04;;;;;;;17.70;13.00;;;;;;;-0.65;70.06;101919.15;105590;1268;59507;-70
2024/01/31 02:21:31;;;;;;;18.90;14.10;;;;;;;-0.65;69.92;101914.81;105512;1266;59644;-69
2024/01/31 02:23:59;;;;;;;20.10;13.20;;;;;;;-0.65;69.86;101910.15;105440;1263;62989;-70
2024/01/31 02:26:26;;;;;;;29.50;18.50;;;;;;;-0.66;69.93;101913.27;105620;1266;59647;-70
2024/01/31 02:28:52;;;;;;;23.00;15.20;;;;;;;-0.66;70.01;101916.74;105513;1261;64123;-70
2024/01/31 02:31:19;;;;;;;21.10;14.90;;;;;;;-0.66;69.98;101919.33;105583;1263;59695;-70
2024/01/31 02:33:46;;;;;;;20.00;14.50;;;;;;;-0.65;70.02;101922.77;105454;1261;59541;-69
2024/01/31 02:36:13;;;;;;;24.20;15.00;;;;;;;-0.63;70.06;101920.16;105416;1265;64188;-70
2024/01/31 02:38:39;;;;;;;22.10;14.60;;;;;;;-0.62;70.04;101916.70;105616;1266;59744;-71
2024/01/31 02:41:07;;;;;;;22.60;15.40;;;;;;;-0.63;70.05;101914.45;105513;1262;63954;-71
2024/01/31 02:43:34;;;;;;;25.30;16.00;;;;;;;-0.63;70.00;101911.52;105464;1263;59729;-71
2024/01/31 02:46:01;;;;;;;22.40;15.20;;;;;;;-0.64;70.09;101908.23;105444;1260;59696;-70
2024/01/31 02:48:28;;;;;;;24.40;15.70;;;;;;;-0.64;70.09;101908.59;105432;1265;64374;-70
2024/01/31 02:50:55;;;;;;;23.90;16.40;;;;;;;-0.65;70.17;101909.80;105952;1257;59547;-71
2024/01/31 02:53:21;;;;;;;26.30;17.30;;;;;;;-0.64;70.34;101904.60;105892;1257;62502;-72
2024/01/31 02:55:48;;;;;;;25.50;17.90;;;;;;;-0.62;70.41;101902.51;105953;1254;59627;-71
2024/01/31 02:58:15;;;;;;;25.30;17.40;;;;;;;-0.60;70.52;101900.92;106402;1258;59579;-71
2024/01/31 03:00:42;;;;;;;24.90;16.60;;;;;;;-0.57;70.56;101895.03;105967;1254;62887;-71
2024/01/31 03:03:09;;;;;;;27.40;17.20;;;;;;;-0.54;70.59;101895.88;105943;1254;59674;-72
2024/01/31 03:05:36;;;;;;;24.90;17.30;;;;;;;-0.53;70.69;101891.02;105906;1258;64343;-71
2024/01/31 03:08:03;;;;;;;24.40;16.20;;;;;;;-0.53;70.70;101883.23;105932;1256;59634;-71
2024/01/31 03:10:32;;;;;;;25.80;16.70;;;;;;;-0.53;70.72;101874.40;105950;1255;59543;-69
2024/01/31 03:12:59;;;;;;;23.30;14.60;;;;;;;-0.53;70.82;101869.20;105967;1254;62976;-68
2024/01/31 03:15:25;;;;;;;21.70;14.90;;;;;;;-0.52;70.91;101865.92;105905;1257;60237;-69
2024/01/31 03:17:52;;;;;;;20.10;14.40;;;;;;;-0.52;70.96;101865.39;106011;1256;62542;-69
2024/01/31 03:20:19;;;;;;;22.80;15.20;;;;;;;-0.51;71.01;101864.35;105907;1254;59549;-69
2024/01/31 03:22:46;;;;;;;19.70;14.00;;;;;;;-0.50;71.07;101862.95;105941;1254;59619;-69
2024/01/31 03:25:13;;;;;;;22.90;15.90;;;;;;;-0.49;71.18;101861.72;106095;1257;64188;-68
2024/01/31 03:27:39;;;;;;;20.80;15.30;;;;;;;-0.48;71.17;101859.80;106140;1254;59638;-70
2024/01/31 03:30:06;;;;;;;23.40;15.20;;;;;;;-0.46;71.15;101862.23;105864;1258;63509;-69
2024/01/31 03:32:36;;;;;;;19.20;14.50;;;;;;;-0.46;71.12;101863.61;105965;1257;59714;-70
2024/01/31 03:35:04;;;;;;;24.10;15.30;;;;;;;-0.45;71.10;101863.42;106048;1254;59677;-70
2024/01/31 03:37:31;;;;;;;23.60;15.00;;;;;;;-0.46;71.00;101860.16;106282;1253;64504;-70
2024/01/31 03:39:58;;;;;;;23.00;15.00;;;;;;;-0.47;70.97;101862.94;106014;1254;59663;-70
2024/01/31 03:42:25;;;;;;;21.70;15.60;;;;;;;-0.47;70.89;101863.45;106099;1258;63724;-70
2024/01/31 03:44:52;;;;;;;24.00;15.90;;;;;;;-0.48;70.87;101862.23;105857;1260;59725;-70
2024/01/31 03:47:18;;;;;;;23.60;16.10;;;;;;;-0.50;70.85;101858.27;106053;1256;59717;-70
2024/01/31 03:49:46;;;;;;;22.50;15.40;;;;;;;-0.52;70.85;101856.58;105860;1254;64258;-71
2024/01/31 03:52:13;;;;;;;22.90;16.20;;;;;;;-0.55;70.81;101853.67;106110;1256;59685;-69
2024/01/31 03:54:41;;;;;;;22.90;15.70;;;;;;;-0.58;70.75;101848.66;106169;1258;63833;-70
2024/01/31 03:57:08;;;;;;;26.50;18.40;;;;;;;-0.61;70.83;101844.88;106063;1255;59822;-70
2024/01/31 03:59:35;;;;;;;26.60;17.40;;;;;;;-0.61;70.83;101840.56;105974;1257;59736;-70
2024/01/31 04:02:06;;;;;;;26.20;18.30;;;;;;;-0.62;70.81;101836.59;106144;1254;62916;-71
2024/01/31 04:04:33;;;;;;;24.00;16.50;;;;;;;-0.63;70.92;101829.86;106750;1256;59765;-71
2024/01/31 04:07:00;;;;;;;21.30;14.20;;;;;;;-0.63;70.89;101830.05;106102;1254;64060;-69
2024/01/31 04:09:27;;;;;;;20.30;15.60;;;;;;;-0.63;70.98;101832.10;106059;1254;59651;-70
2024/01/31 04:11:53;;;;;;;18.80;13.80;;;;;;;-0.61;71.07;101827.06;105959;1257;59570;-70
2024/01/31 04:14:20;;;;;;;20.60;14.50;;;;;;;-0.60;70.99;101833.63;106098;1256;65028;-71
2024/01/31 04:16:47;;;;;;;18.60;13.10;;;;;;;-0.60;70.99;101830.69;106024;1254;59718;-72
2024/01/31 04:19:15;;;;;;;16.90;13.00;;;;;;;-0.60;70.91;101828.26;106280;1254;63846;-70
2024/01/31 04:21:42;;;;;;;17.40;13.10;;;;;;;-0.62;70.90;101826.05;106262;1252;60351;-71
2024/01/31 04:24:09;;;;;;;18.30;13.00;;;;;;;-0.63;70.96;101832.63;106179;1254;59641;-72
2024/01/31 04:26:43;;;;;;;17.50;12.90;;;;;;;-0.64;70.93;101834.54;106072;1254;64271;-72
2024/01/31 04:29:10;;;;;;;18.80;13.70;;;;;;;-0.64;70.93;101835.77;106251;1254;59488;-71
2024/01/31 04:31:37;;;;;;;19.90;13.10;;;;;;;-0.64;70.84;101831.95;106191;1256;64114;-69
2024/01/31 04:34:04;;;;;;;19.70;13.90;;;;;;;-0.65;70.88;101835.93;106102;1251;59497;-69
2024/01/31 04:36:32;;;;;;;21.40;13.80;;;;;;;-0.67;70.75;101839.41;106279;1253;59615;-69
2024/01/31 04:38:59;;;;;;;19.20;14.20;;;;;;;-0.68;70.80;101839.08;106041;1254;64978;-70
2024/01/31 04:41:26;;;;;;;19.50;13.60;;;;;;;-0.68;70.78;101834.92;105954;1257;59634;-71
2024/01/31 04:43:53;;;;;;;22.50;15.90;;;;;;;-0.70;70.68;101830.61;106198;1254;64087;-70
2024/01/31 04:46:20;;;;;;;20.80;14.80;;;;;;;-0.73;70.75;101825.46;106248;1254;59647;-71
2024/01/31 04:48:48;;;;;;;22.90;15.60;;;;;;;-0.73;70.82;101827.20;106130;1253;59651;-72
2024/01/31 04:51:15;;;;;;;24.20;15.90;;;;;;;-0.71;70.91;101826.14;106067;1254;64142;-70
2024/01/31 04:53:42;;;;;;;22.00;15.20;;;;;;;-0.70;70.93;101826.98;106023;1254;60269;-69
2024/01/31 04:56:08;;;;;;;22.50;15.70;;;;;;;-0.69;71.03;101828.52;106182;1251;62406;-70
2024/01/31 04:58:35;;;;;;;20.30;14.80;;;;;;;-0.69;71.01;101830.60;106014;1254;59725;-71
2024/01/31 05:01:03;;;;;;;21.50;15.30;;;;;;;-0.69;70.95;101837.86;106734;1252;59635;-71
2024/01/31 05:03:30;;;;;;;22.70;14.60;;;;;;;-0.68;71.03;101844.61;106211;1254;64183;-71
2024/01/31 05:05:57;;;;;;;20.50;13.80;;;;;;;-0.67;71.04;101846.86;106169;1253;59509;-71
2024/01/31 05:08:27;;;;;;;21.10;14.80;;;;;;;-0.66;71.01;101845.13;106164;1256;62447;-69
2024/01/31 05:10:55;;;;;;;22.60;15.80;;;;;;;-0.65;71.05;101843.38;105858;1253;59563;-69
2024/01/31 05:13:22;;;;;;;21.00;15.00;;;;;;;-0.62;71.07;101838.85;106309;1253;60684;-68
2024/01/31 05:15:48;;;;;;;21.80;14.40;;;;;;;-0.60;71.05;101843.83;106080;1253;64278;-72
2024/01/31 05:18:16;;;;;;;21.20;15.00;;;;;;;-0.59;71.03;101837.07;106154;1253;59739;-70
2024/01/31 05:20:43;;;;;;;20.20;14.40;;;;;;;-0.57;71.04;101834.48;106906;1252;64642;-72
2024/01/31 05:23:09;;;;;;;20.80;14.70;;;;;;;-0.55;71.06;101836.36;105739;1258;59634;-71
2024/01/31 05:25:36;;;;;;;20.90;14.50;;;;;;;-0.53;70.99;101829.60;105999;1254;59641;-70
2024/01/31 05:28:03;;;;;;;19.50;14.10;;;;;;;-0.53;71.00;101829.94;106121;1256;64448;-72
2024/01/31 05:30:30;;;;;;;20.90;14.50;;;;;;;-0.52;70.99;101831.14;106059;1254;59736;-69
2024/01/31 05:32:57;;;;;;;17.40;12.40;;;;;;;-0.50;71.00;101835.08;105984;1254;63910;-71
2024/01/31 05:35:25;;;;;;;20.10;14.20;;;;;;;-0.49;70.95;101835.06;105916;1253;60529;-69
2024/01/31 05:37:52;;;;;;;18.60;13.30;;;;;;;-0.48;70.86;101829.53;105669;1254;59740;-72
2024/01/31 05:40:19;;;;;;;21.30;14.20;;;;;;;-0.48;70.78;101827.63;106518;1253;63198;-71
2024/01/31 05:42:46;;;;;;;20.40;14.00;;;;;;;-0.49;70.77;101829.71;105999;1257;59523;-71
2024/01/31 05:45:15;;;;;;;19.10;13.40;;;;;;;-0.49;70.70;101831.27;105698;1260;64047;-70
2024/01/31 05:47:42;;;;;;;19.00;13.50;;;;;;;-0.50;70.61;101828.34;105954;1252;61091;-70
2024/01/31 05:50:10;;;;;;;18.20;13.90;;;;;;;-0.51;70.55;101827.65;105958;1258;60398;-71
2024/01/31 05:52:38;;;;;;;18.90;13.20;;;;;;;-0.51;70.47;101830.61;105884;1254;65077;-71
2024/01/31 05:55:05;;;;;;;19.50;14.20;;;;;;;-0.53;70.38;101829.07;105980;1256;60499;-70
2024/01/31 05:57:32;;;;;;;17.80;13.20;;;;;;;-0.54;70.35;101825.97;106088;1256;64034;-71
2024/01/31 05:59:59;;;;;;;21.60;14.30;;;;;;;-0.56;70.32;101825.82;106162;1253;60463;-72
2024/01/31 06:02:26;;;;;;;20.10;14.10;;;;;;;-0.59;70.19;101822.38;105795;1253;60461;-73
2024/01/31 06:04:53;;;;;;;22.30;14.30;;;;;;;-0.62;70.26;101817.38;105939;1252;65194;-73
2024/01/31 06:07:20;;;;;;;21.50;13.50;;;;;;;-0.63;70.29;101817.40;105931;1254;60485;-73
2024/01/31 06:09:47;;;;;;;20.50;14.00;;;;;;;-0.64;70.26;101816.55;106911;1253;64311;-71
2024/01/31 06:12:14;;;;;;;21.00;14.90;;;;;;;-0.63;70.35;101816.88;105899;1256;60533;-71
2024/01/31 06:14:40;;;;;;;20.70;15.20;;;;;;;-0.61;70.31;101819.45;105931;1253;60361;-71
2024/01/31 06:17:07;;;;;;;21.50;15.70;;;;;;;-0.58;70.36;101819.42;106321;1254;65045;-72
2024/01/31 06:19:34;;;;;;;23.50;15.50;;;;;;;-0.55;70.34;101820.97;105868;1256;60415;-71
2024/01/31 06:22:01;;;;;;;22.00;15.10;;;;;;;-0.53;70.33;101816.77;105873;1254;64115;-70
2024/01/31 06:24:29;;;;;;;22.40;15.60;;;;;;;-0.50;70.35;101814.50;105996;1251;60524;-71
2024/01/31 06:26:56;;;;;;;19.90;14.80;;;;;;;-0.47;70.37;101813.79;105970;1253;60368;-71
2024/01/31 06:29:23;;;;;;;24.30;16.60;;;;;;;-0.44;70.35;101810.11;105954;1257;65862;-73
2024/01/31 06:31:51;;;;;;;27.90;18.10;;;;;;;-0.41;70.34;101805.39;105913;1254;60514;-73
2024/01/31 06:34:18;;;;;;;28.20;19.70;;;;;;;-0.39;70.38;101801.05;105927;1256;64616;-72
2024/01/31 06:36:46;;;;;;;24.50;17.70;;;;;;;-0.36;70.40;101803.64;106041;1254;60494;-71
2024/01/31 06:39:13;;;;;;;23.40;16.60;;;;;;;-0.34;70.35;101802.91;105711;1260;60432;-68
2024/01/31 06:41:39;;;;;;;23.10;17.00;;;;;;;-0.32;70.24;101802.52;105845;1257;66846;-72
2024/01/31 06:44:06;;;;;;;25.60;17.30;;;;;;;-0.29;70.28;101801.29;105989;1253;60544;-71
2024/01/31 06:46:33;;;;;;;23.90;16.90;;;;;;;-0.26;70.21;101800.91;106388;1253;63793;-70
2024/01/31 06:49:00;;;;;;;26.90;18.50;;;;;;;-0.24;70.03;101801.23;106059;1252;60448;-71
2024/01/31 06:51:27;;;;;;;27.10;18.60;;;;;;;-0.24;70.01;101801.92;106013;1254;61876;-71
2024/01/31 06:53:54;;;;;;;29.50;20.00;;;;;;;-0.24;69.95;101804.52;105903;1256;65012;-71
2024/01/31 06:56:21;;;;;;;29.80;20.50;;;;;;;-0.23;69.96;101801.38;106109;1253;65515;-71
2024/01/31 06:58:48;;;;;;;29.20;18.70;;;;;;;-0.20;70.01;101801.34;106259;1254;64664;-75
2024/01/31 07:01:16;;;;;;;24.90;17.50;;;;;;;-0.18;69.99;101801.32;105914;1253;60444;-79
2024/01/31 07:03:44;;;;;;;21.60;15.90;;;;;;;-0.14;69.88;101797.98;106083;1256;60465;-72
2024/01/31 07:06:11;;;;;;;23.60;16.00;;;;;;;-0.10;69.95;101798.63;106086;1253;67388;-72
2024/01/31 07:08:39;;;;;;;22.20;16.40;;;;;;;-0.05;69.97;101798.73;105928;1253;66685;-72
2024/01/31 07:11:08;;;;;;;21.20;15.10;;;;;;;-0.00;70.01;101803.00;106106;1253;63809;-74
2024/01/31 07:13:35;;;;;;;20.80;15.40;;;;;;;0.05;69.97;101803.27;105900;1254;60569;-72
2024/01/31 07:16:09;;;;;;;20.80;14.50;;;;;;;0.10;69.90;101794.91;106246;1254;60470;-77
2024/01/31 07:18:39;;;;;;;20.20;14.30;;;;;;;0.15;69.87;101787.04;106004;1253;63746;-75
2024/01/31 07:21:06;;;;;;;19.40;13.40;;;;;;;0.20;69.82;101783.69;105892;1253;60504;-77
2024/01/31 07:23:38;;;;;;;19.80;13.90;;;;;;;0.23;69.79;101785.03;106127;1256;62588;-74
2024/01/31 07:26:04;;;;;;;18.70;13.90;;;;;;;0.26;69.77;101787.23;106050;1253;60362;-76
2024/01/31 07:28:37;;;;;;;20.00;14.40;;;;;;;0.31;69.81;101785.96;106117;1253;60311;-75
2024/01/31 07:31:06;;;;;;;21.50;14.20;;;;;;;0.36;69.79;101785.35;106004;1253;65123;-71
2024/01/31 07:33:35;;;;;;;17.40;12.80;;;;;;;0.42;69.76;101790.12;106222;1255;62189;-71
2024/01/31 07:36:05;;;;;;;22.00;15.70;;;;;;;0.46;69.70;101791.61;106098;1254;64611;-71
2024/01/31 07:38:32;;;;;;;23.10;16.10;;;;;;;0.51;69.68;101790.67;106065;1254;60597;-71
2024/01/31 07:40:59;;;;;;;23.70;17.30;;;;;;;0.58;69.77;101792.30;106035;1253;60448;-72
2024/01/31 07:43:25;;;;;;;24.30;17.50;;;;;;;0.64;69.63;101788.91;105906;1253;64995;-72
2024/01/31 07:45:53;;;;;;;26.40;19.40;;;;;;;0.68;69.63;101791.11;106256;1252;60432;-72
2024/01/31 07:48:20;;;;;;;28.90;19.50;;;;;;;0.72;69.59;101800.22;105883;1254;64005;-72
2024/01/31 07:50:46;;;;;;;27.80;20.20;;;;;;;0.76;69.58;101797.38;106016;1253;60541;-71
2024/01/31 07:53:13;;;;;;;26.80;18.50;;;;;;;0.79;69.55;101792.84;105894;1253;60632;-69
2024/01/31 07:55:40;;;;;;;28.00;19.30;;;;;;;0.83;69.62;101792.41;106182;1254;65237;-72
2024/01/31 07:58:07;;;;;;;32.80;19.00;;;;;;;0.86;69.61;101790.63;105927;1253;60562;-71
2024/01/31 08:00:34;;;;;;;27.10;18.60;;;;;;;0.89;69.63;101787.83;105827;1253;64064;-72
2024/01/31 08:03:00;;;;;;;26.10;19.40;;;;;;;0.92;69.56;101790.02;105752;1253;60389;-73
2024/01/31 08:05:30;;;;;;;28.20;19.20;;;;;;;0.96;69.59;101786.30;106061;1253;60463;-72
2024/01/31 08:07:57;;;;;;;30.60;19.70;;;;;;;1.01;69.63;101786.22;105888;1253;65177;-72
2024/01/31 08:10:24;;;;;;;25.50;18.20;;;;;;;1.06;69.55;101783.70;105987;1257;60517;-70
2024/01/31 08:12:54;;;;;;;23.90;17.50;;;;;;;1.12;69.56;101781.85;105812;1256;63840;-71
2024/01/31 08:15:22;;;;;;;24.40;17.50;;;;;;;1.19;69.56;101776.89;105762;1252;60423;-73
2024/01/31 08:17:48;;;;;;;27.40;18.40;;;;;;;1.25;69.57;101773.30;105770;1254;60549;-70
2024/01/31 08:20:15;;;;;;;26.20;17.40;;;;;;;1.32;69.51;101773.86;105897;1251;66867;-71
2024/01/31 08:22:42;;;;;;;24.00;17.20;;;;;;;1.38;69.52;101769.91;105720;1253;60511;-71
2024/01/31 08:25:10;;;;;;;24.40;16.90;;;;;;;1.43;69.38;101765.83;105995;1256;64764;-71
2024/01/31 08:27:37;;;;;;;23.40;17.20;;;;;;;1.47;69.28;101758.83;106033;1252;60449;-72
2024/01/31 08:30:05;;;;;;;22.10;16.00;;;;;;;1.52;69.11;101756.64;105739;1253;60438;-73
2024/01/31 08:32:35;;;;;;;27.50;18.20;;;;;;;1.55;68.93;101752.94;106121;1253;65190;-70
2024/01/31 08:35:03;;;;;;;24.70;17.60;;;;;;;1.58;68.76;101752.18;105740;1253;60459;-70
2024/01/31 08:37:31;;;;;;;22.70;15.70;;;;;;;1.61;68.60;101752.98;105780;1258;63911;-71
2024/01/31 08:40:00;;;;;;;21.30;15.60;;;;;;;1.64;68.36;101751.36;105790;1253;60559;-70
2024/01/31 08:42:33;;;;;;;22.00;16.10;;;;;;;1.68;68.32;101747.28;105925;1254;60432;-71
2024/01/31 08:45:00;;;;;;;23.70;17.30;;;;;;;1.72;68.12;101742.66;105981;1257;66755;-71
2024/01/31 08:47:27;;;;;;;24.10;16.50;;;;;;;1.76;67.89;101736.70;105802;1253;60499;-71
2024/01/31 08:49:55;;;;;;;21.70;15.50;;;;;;;1.81;67.53;101736.77;105941;1259;64693;-71
2024/01/31 08:52:22;;;;;;;24.00;17.00;;;;;;;1.84;67.39;101734.61;106038;1254;60476;-70
2024/01/31 08:54:50;;;;;;;26.40;17.80;;;;;;;1.89;67.26;101731.89;105769;1251;60448;-70
2024/01/31 08:57:20;;;;;;;26.20;18.60;;;;;;;1.94;67.14;101728.30;105804;1256;67053;-71
2024/01/31 08:59:47;;;;;;;23.70;17.80;;;;;;;2.02;66.93;101730.92;105950;1253;60598;-73
2024/01/31 09:02:14;;;;;;;25.80;18.30;;;;;;;2.08;66.62;101725.92;105748;1253;65713;-70
2024/01/31 09:04:40;;;;;;;23.60;17.30;;;;;;;2.13;66.37;101726.68;106046;1253;60474;-70
2024/01/31 09:07:07;;;;;;;24.20;16.60;;;;;;;2.16;66.15;101720.53;105869;1255;59575;-72
2024/01/31 09:09:38;;;;;;;22.70;15.10;;;;;;;2.18;65.98;101714.20;105996;1253;63794;-71
2024/01/31 09:12:05;;;;;;;22.20;14.70;;;;;;;2.21;65.77;101711.87;105986;1254;60437;-70
2024/01/31 09:14:33;;;;;;;21.30;15.50;;;;;;;2.23;65.53;101713.77;105790;1253;64741;-71
2024/01/31 09:17:00;;;;;;;21.10;14.90;;;;;;;2.24;65.42;101717.02;105722;1261;59448;-70
2024/01/31 09:19:28;;;;;;;19.90;15.00;;;;;;;2.26;65.19;101715.94;105814;1253;60531;-71
2024/01/31 09:21:55;;;;;;;17.90;13.50;;;;;;;2.28;65.12;101715.36;105898;1251;67203;-72
2024/01/31 09:24:21;;;;;;;21.40;14.80;;;;;;;2.29;64.98;101711.85;106332;1251;60846;-72
2024/01/31 09:26:48;;;;;;;23.00;16.40;;;;;;;2.32;65.02;101706.95;105928;1251;63715;-71
2024/01/31 09:29:15;;;;;;;23.30;15.80;;;;;;;2.35;64.97;101705.32;105957;1252;60530;-74
2024/01/31 09:31:42;;;;;;;21.10;16.20;;;;;;;2.37;64.97;101706.82;105682;1256;60313;-72
2024/01/31 09:34:09;;;;;;;21.60;15.80;;;;;;;2.39;64.98;101698.95;105935;1252;66077;-70
2024/01/31 09:36:36;;;;;;;22.80;15.20;;;;;;;2.39;64.98;101698.05;105738;1253;60467;-71
2024/01/31 09:39:03;;;;;;;23.40;16.20;;;;;;;2.40;64.94;101695.08;105840;1254;65934;-71
2024/01/31 09:41:30;;;;;;;21.10;14.80;;;;;;;2.44;65.02;101692.75;105879;1251;60436;-72
2024/01/31 09:43:57;;;;;;;23.70;15.10;;;;;;;2.49;65.16;101695.05;105872;1258;61641;-71
2024/01/31 09:46:24;;;;;;;22.80;14.90;;;;;;;2.54;65.22;101695.60;105683;1257;66916;-70
2024/01/31 09:48:51;;;;;;;22.90;15.30;;;;;;;2.60;65.22;101684.86;105931;1256;60457;-71
2024/01/31 09:51:21;;;;;;;22.40;16.20;;;;;;;2.63;65.13;101676.98;105857;1253;65781;-71
2024/01/31 09:54:00;;;;;;;28.10;17.60;;;;;;;2.65;65.11;101676.39;105895;1252;60550;-71
2024/01/31 09:56:33;;;;;;;22.60;16.10;;;;;;;2.69;65.05;101676.13;105498;1253;60443;-72
2024/01/31 09:59:00;;;;;;;21.30;15.40;;;;;;;2.74;65.04;101673.19;105806;1256;65118;-71
2024/01/31 10:01:27;;;;;;;21.70;15.10;;;;;;;2.79;64.96;101672.02;106000;1254;60912;-73
2024/01/31 10:03:59;;;;;;;27.40;17.50;;;;;;;2.82;64.79;101669.14;105793;1256;71812;-73
2024/01/31 10:06:27;;;;;;;24.90;16.80;;;;;;;2.83;64.74;101667.05;105923;1255;60438;-71
2024/01/31 10:08:56;;;;;;;21.60;15.20;;;;;;;2.84;64.65;101663.35;105909;1251;60440;-72
2024/01/31 10:11:25;;;;;;;22.50;15.70;;;;;;;2.86;64.62;101659.11;105822;1251;65798;-69
2024/01/31 10:13:53;;;;;;;26.10;16.10;;;;;;;2.90;64.64;101658.34;105740;1251;60421;-70
2024/01/31 10:16:21;;;;;;;21.40;15.80;;;;;;;2.95;64.69;101659.41;105764;1253;63874;-71
2024/01/31 10:18:50;;;;;;;22.40;15.70;;;;;;;3.01;64.66;101651.57;105701;1252;60458;-69
2024/01/31 10:21:21;;;;;;;27.30;17.70;;;;;;;3.07;64.56;101646.35;105797;1257;61606;-69
2024/01/31 10:24:01;;;;;;;33.90;20.60;;;;;;;3.13;64.53;101644.81;105592;1251;64865;-70
2024/01/31 10:26:28;;;;;;;33.60;21.60;;;;;;;3.17;64.34;101642.77;105780;1253;60464;-69
2024/01/31 10:29:00;;;;;;;26.20;19.30;;;;;;;3.22;64.36;101640.89;105808;1253;65576;-74
2024/01/31 10:31:37;;;;;;;23.20;16.20;;;;;;;3.30;64.25;101637.88;105619;1253;60816;-68
2024/01/31 10:34:05;;;;;;;27.50;16.30;;;;;;;3.36;64.15;101631.59;105797;1254;60414;-71
2024/01/31 10:36:33;;;;;;;23.90;17.00;;;;;;;3.44;64.09;101627.02;105788;1257;66997;-69
2024/01/31 10:39:03;;;;;;;27.10;18.00;;;;;;;3.53;64.02;101631.98;105840;1253;60574;-69
2024/01/31 10:41:31;;;;;;;26.90;19.80;;;;;;;3.65;63.97;101629.85;105870;1251;66090;-68
2024/01/31 10:44:00;;;;;;;41.40;28.20;;;;;;;3.78;63.67;101620.07;105812;1253;60499;-67
2024/01/31 10:46:29;;;;;;;34.70;23.50;;;;;;;3.93;63.59;101619.24;105926;1260;60409;-69
2024/01/31 10:48:56;;;;;;;30.70;21.10;;;;;;;4.10;63.25;101617.98;106037;1251;64958;-68
2024/01/31 10:51:23;;;;;;;26.40;18.50;;;;;;;4.26;62.81;101612.92;105797;1255;60428;-69
2024/01/31 10:53:50;;;;;;;25.50;18.00;;;;;;;4.39;62.32;101610.04;105828;1254;65997;-68
2024/01/31 10:56:17;;;;;;;22.90;16.50;;;;;;;4.52;62.02;101611.00;105742;1253;60454;-69
2024/01/31 10:58:45;;;;;;;22.80;15.50;;;;;;;4.64;61.55;101604.10;105655;1253;60536;-69
2024/01/31 11:01:17;;;;;;;23.30;16.40;;;;;;;4.77;60.56;101596.65;105836;1256;66725;-69
2024/01/31 11:03:45;;;;;;;21.80;15.80;;;;;;;4.91;60.21;101594.59;105562;1259;60489;-68
2024/01/31 11:06:12;;;;;;;22.00;15.40;;;;;;;5.04;60.10;101585.19;105947;1251;64703;-68
2024/01/31 11:08:40;;;;;;;20.30;14.50;;;;;;;5.14;59.51;101583.24;106071;1256;60335;-68
2024/01/31 11:11:11;;;;;;;21.60;15.30;;;;;;;5.18;59.08;101581.19;105854;1251;60457;-68
2024/01/31 11:13:38;;;;;;;23.20;15.70;;;;;;;5.21;59.10;101579.17;105909;1251;65825;-69
2024/01/31 11:16:05;;;;;;;24.80;17.50;;;;;;;5.22;58.81;101573.37;105988;1253;60424;-69
2024/01/31 11:18:32;;;;;;;27.30;19.20;;;;;;;5.20;58.55;101568.73;105762;1251;65501;-69
2024/01/31 11:20:59;;;;;;;21.10;15.30;;;;;;;5.13;58.43;101568.80;106019;1251;60451;-68